createdAt,value
2023-05-12T00:01:16.785Z,99394.52
2023-05-12T00:03:44.140Z,99395.39
2023-05-12T00:06:11.519Z,99391.09
2023-05-12T00:08:38.435Z,99393.69
2023-05-12T00:11:05.316Z,99390.57
2023-05-12T00:13:32.158Z,99396.45
2023-05-12T00:15:59.411Z,99396.11
2023-05-12T00:18:28.286Z,99397.67
2023-05-12T00:20:55.651Z,99397.15
2023-05-12T00:23:22.929Z,99399.23
2023-05-12T00:25:50.130Z,99396.48
2023-05-12T00:28:18.396Z,99400.79
2023-05-12T00:30:45.776Z,99402.52
2023-05-12T00:33:12.949Z,99400.43
2023-05-12T00:35:39.853Z,99403.55
2023-05-12T00:38:06.624Z,99401.12
2023-05-12T00:40:33.373Z,99408.38
2023-05-12T00:43:00.285Z,99407.68
2023-05-12T00:45:29.546Z,99408.71
2023-05-12T00:47:56.781Z,99407.84
2023-05-12T00:50:24.936Z,99414.74
2023-05-12T00:52:51.702Z,99417.14
2023-05-12T00:55:18.578Z,99420.77
2023-05-12T00:57:45.525Z,99420.41
2023-05-12T01:00:14.139Z,99418.52
2023-05-12T01:02:42.183Z,99416.75
2023-05-12T01:05:10.143Z,99420.89
2023-05-12T01:07:37.929Z,99420.70
2023-05-12T01:10:05.453Z,99423.96
2023-05-12T01:12:34.821Z,99426.38
2023-05-12T01:15:03.166Z,99425.48
2023-05-12T01:17:33.418Z,99428.23
2023-05-12T01:20:01.778Z,99427.53
2023-05-12T01:22:31.351Z,99425.10
2023-05-12T01:25:00.124Z,99423.87
2023-05-12T01:27:28.957Z,99425.95
2023-05-12T01:29:58.936Z,99425.58
2023-05-12T01:32:26.484Z,99426.80
2023-05-12T01:34:53.573Z,99424.38
2023-05-12T01:37:20.700Z,99425.75
2023-05-12T01:39:47.676Z,99424.52
2023-05-12T01:42:18.599Z,99422.58
2023-05-12T01:44:45.508Z,99423.77
2023-05-12T01:47:12.289Z,99419.27
2023-05-12T01:49:40.508Z,99419.06
2023-05-12T01:52:10.876Z,99421.98
2023-05-12T01:54:37.681Z,99422.45
2023-05-12T01:57:05.411Z,99420.19
2023-05-12T01:59:33.134Z,99426.01
2023-05-12T02:02:00.850Z,99424.79
2023-05-12T02:04:30.011Z,99423.55
2023-05-12T02:06:57.090Z,99425.24
2023-05-12T02:09:24.074Z,99430.38
2023-05-12T02:11:51.236Z,99428.27
2023-05-12T02:14:18.159Z,99432.21
2023-05-12T02:16:45.426Z,99430.79
2023-05-12T02:19:12.404Z,99430.58
2023-05-12T02:21:39.403Z,99432.27
2023-05-12T02:24:06.686Z,99434.13
2023-05-12T02:26:35.034Z,99432.02
2023-05-12T02:29:02.160Z,99433.55
2023-05-12T02:31:29.053Z,99435.08
2023-05-12T02:33:56.156Z,99437.29
2023-05-12T02:36:23.161Z,99437.23
2023-05-12T02:38:50.184Z,99439.11
2023-05-12T02:41:17.269Z,99439.59
2023-05-12T02:43:44.212Z,99441.97
2023-05-12T02:46:11.275Z,99447.79
2023-05-12T02:48:38.722Z,99447.95
2023-05-12T02:51:05.889Z,99448.27
2023-05-12T02:53:32.690Z,99450.13
2023-05-12T02:55:59.485Z,99454.20
2023-05-12T02:58:26.380Z,99450.69
2023-05-12T03:01:03.168Z,99456.30
2023-05-12T03:03:37.067Z,99453.45
2023-05-12T03:06:04.779Z,99452.36
2023-05-12T03:08:31.820Z,99452.21
2023-05-12T03:10:58.854Z,99451.78
2023-05-12T03:13:26.094Z,99455.67
2023-05-12T03:15:52.862Z,99450.38
2023-05-12T03:18:19.809Z,99450.91
2023-05-12T03:20:47.121Z,99452.39
2023-05-12T03:23:13.882Z,99452.64
2023-05-12T03:25:40.675Z,99452.15
2023-05-12T03:28:08.069Z,99451.82
2023-05-12T03:30:35.053Z,99453.71
2023-05-12T03:33:01.943Z,99453.85
2023-05-12T03:35:28.979Z,99448.66
2023-05-12T03:37:55.872Z,99449.85
2023-05-12T03:40:22.931Z,99453.65
2023-05-12T03:42:50.197Z,99452.61
2023-05-12T03:45:18.049Z,99452.73
2023-05-12T03:47:44.962Z,99453.55
2023-05-12T03:50:12.833Z,99455.80
2023-05-12T03:52:41.349Z,99459.16
2023-05-12T03:55:09.312Z,99466.41
2023-05-12T03:57:37.847Z,99462.38
2023-05-12T04:00:05.861Z,99462.81
2023-05-12T04:02:39.724Z,99463.77
2023-05-12T04:05:08.651Z,99467.98
2023-05-12T04:07:35.913Z,99463.91
2023-05-12T04:10:03.221Z,99465.20
2023-05-12T04:12:30.157Z,99466.26
2023-05-12T04:14:57.637Z,99466.69
2023-05-12T04:17:24.556Z,99470.81
2023-05-12T04:19:53.578Z,99474.87
2023-05-12T04:22:20.884Z,99477.70
2023-05-12T04:24:48.428Z,99471.06
2023-05-12T04:27:15.226Z,99475.45
2023-05-12T04:29:42.124Z,99477.59
2023-05-12T04:32:09.322Z,99473.86
2023-05-12T04:34:36.478Z,99472.95
2023-05-12T04:37:03.361Z,99469.30
2023-05-12T04:39:30.256Z,99470.64
2023-05-12T04:41:57.832Z,99468.67
2023-05-12T04:44:24.944Z,99472.39
2023-05-12T04:46:54.193Z,99474.68
2023-05-12T04:49:21.198Z,99467.27
2023-05-12T04:51:48.136Z,99468.52
2023-05-12T04:54:15.046Z,99467.52
2023-05-12T04:56:42.901Z,99472.23
2023-05-12T04:59:09.855Z,99472.43
2023-05-12T05:01:36.597Z,99477.55
2023-05-12T05:04:03.855Z,99487.84
2023-05-12T05:06:30.862Z,99483.73
2023-05-12T05:08:58.496Z,99488.00
2023-05-12T05:11:25.956Z,99485.46
2023-05-12T05:13:52.731Z,99488.83
2023-05-12T05:16:20.187Z,99489.59
2023-05-12T05:18:47.812Z,99498.04
2023-05-12T05:21:14.670Z,99495.03
2023-05-12T05:23:41.803Z,99494.08
2023-05-12T05:26:09.229Z,99495.95
2023-05-12T05:28:36.640Z,99497.30
2023-05-12T05:31:04.889Z,99497.73
2023-05-12T05:33:32.329Z,99499.33
2023-05-12T05:36:00.043Z,99503.02
2023-05-12T05:38:27.522Z,99504.99
2023-05-12T05:40:54.758Z,99507.06
2023-05-12T05:43:23.466Z,99505.87
2023-05-12T05:45:51.492Z,99504.90
2023-05-12T05:48:20.045Z,99511.21
2023-05-12T05:50:47.260Z,99507.88
2023-05-12T05:53:14.347Z,99511.66
2023-05-12T05:55:41.387Z,99512.64
2023-05-12T05:58:08.649Z,99512.14
2023-05-12T06:00:35.505Z,99515.34
2023-05-12T06:03:02.477Z,99517.10
2023-05-12T06:05:30.720Z,99520.73
2023-05-12T06:07:57.504Z,99523.44
2023-05-12T06:10:25.613Z,99524.16
2023-05-12T06:12:52.533Z,99527.46
2023-05-12T06:15:21.464Z,99532.19
2023-05-12T06:17:49.715Z,99527.83
2023-05-12T06:20:16.657Z,99526.48
2023-05-12T06:22:45.305Z,99527.24
2023-05-12T06:25:13.315Z,99526.98
2023-05-12T06:27:40.166Z,99531.55
2023-05-12T06:30:07.916Z,99526.20
2023-05-12T06:32:34.823Z,99525.88
2023-05-12T06:35:02.157Z,99522.84
2023-05-12T06:37:29.090Z,99524.44
2023-05-12T06:39:57.948Z,99521.73
2023-05-12T06:42:26.759Z,99522.89
2023-05-12T06:44:55.990Z,99522.80
2023-05-12T06:47:22.799Z,99523.52
2023-05-12T06:49:50.332Z,99520.45
2023-05-12T06:52:17.218Z,99520.91
2023-05-12T06:54:44.099Z,99519.27
2023-05-12T06:57:10.963Z,99515.98
2023-05-12T06:59:37.817Z,99512.20
2023-05-12T07:02:04.873Z,99514.96
2023-05-12T07:04:31.732Z,99518.64
2023-05-12T07:06:58.856Z,99517.28
2023-05-12T07:09:25.656Z,99518.77
2023-05-12T07:11:52.495Z,99519.23
2023-05-12T07:14:19.411Z,99517.77
2023-05-12T07:16:46.900Z,99518.27
2023-05-12T07:19:13.781Z,99515.73
2023-05-12T07:21:40.939Z,99516.69
2023-05-12T07:24:07.796Z,99523.90
2023-05-12T07:26:34.667Z,99530.40
2023-05-12T07:31:20.707Z,99522.81
2023-05-12T07:33:48.036Z,99523.33
2023-05-12T07:36:15.057Z,99527.23
2023-05-12T07:38:44.842Z,99523.33
2023-05-12T07:41:11.898Z,99523.56
2023-05-12T07:43:38.880Z,99524.20
2023-05-12T07:46:20.904Z,99522.57
2023-05-12T07:48:47.952Z,99522.69
2023-05-12T07:51:15.026Z,99518.73
2023-05-12T07:53:41.985Z,99521.90
2023-05-12T07:56:08.934Z,99517.31
2023-05-12T07:58:35.871Z,99519.24
2023-05-12T08:01:06.028Z,99522.00
2023-05-12T08:03:33.621Z,99518.48
2023-05-12T08:06:00.554Z,99512.91
2023-05-12T08:08:27.392Z,99514.91
2023-05-12T08:10:54.223Z,99516.86
2023-05-12T08:13:21.121Z,99517.46
2023-05-12T08:15:49.418Z,99514.96
2023-05-12T08:18:16.256Z,99510.06
2023-05-12T08:20:43.213Z,99504.77
2023-05-12T08:23:10.045Z,99499.85
2023-05-12T08:25:37.323Z,99502.21
2023-05-12T08:28:04.619Z,99509.97
2023-05-12T08:30:31.340Z,99512.75
2023-05-12T08:32:58.274Z,99509.98
2023-05-12T08:35:25.162Z,99515.98
2023-05-12T08:37:52.804Z,99514.05
2023-05-12T08:40:25.796Z,99514.61
2023-05-12T08:43:13.772Z,99506.55
2023-05-12T08:45:40.711Z,99510.39
2023-05-12T08:48:11.458Z,99509.48
2023-05-12T08:50:38.862Z,99504.26
2023-05-12T08:53:05.767Z,99503.33
2023-05-12T08:55:34.324Z,99502.86
2023-05-12T08:58:03.059Z,99500.71
2023-05-12T09:00:31.249Z,99499.88
2023-05-12T09:02:59.480Z,99497.15
2023-05-12T09:05:27.345Z,99496.00
2023-05-12T09:07:55.331Z,99497.60
2023-05-12T09:10:34.224Z,99503.23
2023-05-12T09:13:37.958Z,99496.01
2023-05-12T09:16:04.863Z,99498.25
2023-05-12T09:18:44.495Z,99490.72
2023-05-12T09:21:11.977Z,99491.65
2023-05-12T09:23:38.834Z,99493.73
2023-05-12T09:26:05.618Z,99496.30
2023-05-12T09:28:39.014Z,99494.58
2023-05-12T09:31:16.261Z,99492.48
2023-05-12T09:33:43.075Z,99493.96
2023-05-12T09:36:09.915Z,99494.81
2023-05-12T09:38:36.760Z,99496.31
2023-05-12T09:41:03.774Z,99487.89
2023-05-12T09:43:32.231Z,99494.69
2023-05-12T09:46:05.814Z,99491.56
2023-05-12T09:48:33.289Z,99492.88
2023-05-12T09:51:00.200Z,99492.23
2023-05-12T09:53:27.242Z,99491.81
2023-05-12T09:55:54.079Z,99486.28
2023-05-12T09:58:21.052Z,99493.24
2023-05-12T10:03:18.226Z,99486.31
2023-05-12T10:05:56.668Z,99491.73
2023-05-12T10:08:32.379Z,99485.35
2023-05-12T10:10:59.857Z,99494.02
2023-05-12T10:13:26.842Z,99494.23
2023-05-12T10:15:55.997Z,99498.64
2023-05-12T10:18:23.414Z,99498.34
2023-05-12T10:20:50.276Z,99493.65
2023-05-12T10:23:17.256Z,99494.26
2023-05-12T10:25:44.151Z,99497.41
2023-05-12T10:28:11.874Z,99496.61
2023-05-12T10:30:39.345Z,99493.48
2023-05-12T10:33:08.705Z,99494.92
2023-05-12T10:35:36.443Z,99497.82
2023-05-12T10:38:07.617Z,99497.48
2023-05-12T10:40:34.393Z,99492.20
2023-05-12T10:43:01.539Z,99492.30
2023-05-12T10:45:28.399Z,99495.05
2023-05-12T10:48:05.241Z,99496.38
2023-05-12T10:50:32.052Z,99497.80
2023-05-12T10:52:58.965Z,99495.46
2023-05-12T10:55:37.023Z,99489.85
2023-05-12T10:58:05.682Z,99491.42
2023-05-12T11:00:33.070Z,99489.77
2023-05-12T11:03:08.010Z,99493.45
2023-05-12T11:05:37.782Z,99493.89
2023-05-12T11:08:05.364Z,99492.41
2023-05-12T11:10:33.568Z,99489.23
2023-05-12T11:13:24.426Z,99486.16
2023-05-12T11:15:56.869Z,99472.50
2023-05-12T11:18:23.922Z,99471.48
2023-05-12T11:20:55.238Z,99471.42
2023-05-12T11:23:34.913Z,99471.91
2023-05-12T11:26:20.207Z,99473.70
2023-05-12T11:28:47.731Z,99480.11
2023-05-12T11:31:21.369Z,99477.18
2023-05-12T11:33:53.712Z,99483.48
2023-05-12T11:36:25.599Z,99478.29
2023-05-12T11:38:52.391Z,99479.70
2023-05-12T11:41:26.268Z,99480.46
2023-05-12T11:43:53.848Z,99479.87
2023-05-12T11:46:27.658Z,99478.12
2023-05-12T11:48:59.171Z,99475.47
2023-05-12T11:51:26.232Z,99469.85
2023-05-12T11:53:53.454Z,99469.36
2023-05-12T12:01:44.506Z,99462.39
2023-05-12T12:04:11.324Z,99459.96
2023-05-12T12:06:45.416Z,99457.79
2023-05-12T12:09:12.536Z,99459.09
2023-05-12T12:11:39.296Z,99454.58
2023-05-12T12:14:06.247Z,99457.52
2023-05-12T12:16:33.188Z,99459.34
2023-05-12T12:19:00.259Z,99454.77
2023-05-12T12:21:27.126Z,99452.58
2023-05-12T12:23:54.096Z,99450.55
2023-05-12T12:26:21.650Z,99452.05
2023-05-12T12:28:48.862Z,99450.13
2023-05-12T12:31:16.060Z,99449.22
2023-05-12T12:33:43.086Z,99457.79
2023-05-12T12:36:10.012Z,99459.64
2023-05-12T12:38:36.907Z,99465.33
2023-05-12T12:41:04.454Z,99462.02
2023-05-12T12:43:31.260Z,99462.80
2023-05-12T12:45:58.231Z,99466.55
2023-05-12T12:48:26.707Z,99464.88
2023-05-12T12:50:53.959Z,99462.95
2023-05-12T12:53:20.974Z,99460.85
2023-05-12T12:55:47.778Z,99465.50
2023-05-12T12:58:14.569Z,99469.22
2023-05-12T13:00:41.371Z,99464.89
2023-05-12T13:03:08.368Z,99470.98
2023-05-12T13:05:35.478Z,99469.64
2023-05-12T13:08:02.299Z,99465.01
2023-05-12T13:10:29.300Z,99465.79
2023-05-12T13:12:56.191Z,99464.80
2023-05-12T13:15:23.363Z,99461.66
2023-05-12T13:17:50.422Z,99463.37
2023-05-12T13:20:17.282Z,99464.36
2023-05-12T13:22:44.819Z,99460.19
2023-05-12T13:25:11.751Z,99463.73
2023-05-12T13:27:38.705Z,99462.29
2023-05-12T13:30:10.900Z,99463.54
2023-05-12T13:32:39.638Z,99464.20
2023-05-12T13:35:06.848Z,99461.80
2023-05-12T13:37:33.664Z,99457.52
2023-05-12T13:40:00.498Z,99453.91
2023-05-12T13:42:27.420Z,99448.28
2023-05-12T13:44:54.199Z,99447.63
2023-05-12T13:47:21.175Z,99441.94
2023-05-12T13:49:48.155Z,99435.46
2023-05-12T13:52:15.612Z,99435.58
2023-05-12T13:54:42.435Z,99427.14
2023-05-12T13:57:09.290Z,99437.23
2023-05-12T13:59:36.339Z,99430.91
2023-05-12T14:02:03.256Z,99430.44
2023-05-12T14:04:30.435Z,99427.73
2023-05-12T14:06:57.690Z,99434.51
2023-05-12T14:09:25.004Z,99440.39
2023-05-12T14:11:52.079Z,99435.77
2023-05-12T14:14:18.865Z,99438.76
2023-05-12T14:16:45.897Z,99441.36
2023-05-12T14:19:12.826Z,99438.96
2023-05-12T14:21:41.380Z,99437.22
2023-05-12T14:24:09.180Z,99429.92
2023-05-12T14:26:36.093Z,99435.96
2023-05-12T14:29:03.069Z,99438.16
2023-05-12T14:31:30.444Z,99434.67
2023-05-12T14:33:57.393Z,99432.45
2023-05-12T14:36:24.202Z,99433.98
2023-05-12T14:38:50.951Z,99434.73
2023-05-12T14:41:17.783Z,99432.66
2023-05-12T14:43:44.734Z,99430.79
2023-05-12T14:46:12.068Z,99426.92
2023-05-12T14:48:39.234Z,99429.02
2023-05-12T14:51:06.024Z,99427.35
2023-05-12T14:53:33.088Z,99429.15
2023-05-12T14:55:59.957Z,99428.92
2023-05-12T14:58:27.125Z,99430.34
2023-05-12T15:00:54.044Z,99435.65
2023-05-12T15:03:21.283Z,99432.68
2023-05-12T15:08:21.684Z,99431.30
2023-05-12T15:10:48.702Z,99432.10
2023-05-12T15:13:17.829Z,99433.52
2023-05-12T15:15:45.000Z,99437.15
2023-05-12T15:18:11.846Z,99435.04
2023-05-12T15:20:38.837Z,99433.92
2023-05-12T15:23:05.844Z,99433.33
2023-05-12T15:25:33.055Z,99433.64
2023-05-12T15:27:59.860Z,99430.04
2023-05-12T15:30:26.727Z,99431.02
2023-05-12T15:32:53.660Z,99430.02
2023-05-12T15:35:20.674Z,99428.48
2023-05-12T15:37:47.650Z,99433.44
2023-05-12T15:40:14.815Z,99440.14
2023-05-12T15:42:41.600Z,99435.27
2023-05-12T15:45:09.732Z,99431.94
2023-05-12T15:47:36.872Z,99431.89
2023-05-12T15:50:04.517Z,99430.22
2023-05-12T15:52:31.395Z,99425.52
2023-05-12T15:54:58.307Z,99425.91
2023-05-12T15:57:25.004Z,99427.31
2023-05-12T15:59:57.669Z,99426.47
2023-05-12T16:02:24.730Z,99423.18
2023-05-12T16:04:51.682Z,99423.61
2023-05-12T16:07:18.504Z,99424.48
2023-05-12T16:09:45.603Z,99426.46
2023-05-12T16:12:12.379Z,99428.38
2023-05-12T16:14:39.298Z,99428.60
2023-05-12T16:17:06.023Z,99428.19
2023-05-12T16:19:32.759Z,99430.77
2023-05-12T16:22:00.431Z,99427.88
2023-05-12T16:24:28.803Z,99431.94
2023-05-12T16:26:56.285Z,99431.95
2023-05-12T16:29:22.988Z,99432.13
2023-05-12T16:31:49.946Z,99431.10
2023-05-12T16:34:16.850Z,99434.84
2023-05-12T16:36:44.224Z,99431.33
2023-05-12T16:39:11.104Z,99432.89
2023-05-12T16:41:37.882Z,99435.30
2023-05-12T16:44:05.210Z,99436.86
2023-05-12T16:46:32.847Z,99435.61
2023-05-12T16:48:59.963Z,99436.52
2023-05-12T16:51:30.471Z,99437.18
2023-05-12T16:53:57.854Z,99441.19
2023-05-12T16:56:25.964Z,99442.90
2023-05-12T16:58:52.940Z,99441.27
2023-05-12T17:01:19.748Z,99439.13
2023-05-12T17:03:46.997Z,99443.66
2023-05-12T17:06:13.918Z,99439.31
2023-05-12T17:08:41.349Z,99438.25
2023-05-12T17:11:08.370Z,99438.29
2023-05-12T17:13:36.862Z,99440.58
2023-05-12T17:16:04.371Z,99439.14
2023-05-12T17:18:31.509Z,99440.21
2023-05-12T17:20:58.923Z,99441.63
2023-05-12T17:23:26.856Z,99444.98
2023-05-12T17:25:54.341Z,99443.81
2023-05-12T17:28:21.370Z,99445.58
2023-05-12T17:30:48.621Z,99444.23
2023-05-12T17:33:16.518Z,99443.97
2023-05-12T17:35:44.602Z,99445.48
2023-05-12T17:38:16.270Z,99448.06
2023-05-12T17:40:43.270Z,99445.74
2023-05-12T17:43:09.960Z,99447.43
2023-05-12T17:45:36.784Z,99450.56
2023-05-12T17:48:04.165Z,99450.85
2023-05-12T17:50:31.046Z,99453.94
2023-05-12T17:52:58.194Z,99453.88
2023-05-12T17:55:25.116Z,99452.25
2023-05-12T17:57:52.053Z,99448.70
2023-05-12T18:00:19.096Z,99447.60
2023-05-12T18:02:46.278Z,99450.13
2023-05-12T18:05:13.104Z,99452.42
2023-05-12T18:07:40.134Z,99451.79
2023-05-12T18:10:08.548Z,99452.17
2023-05-12T18:12:36.141Z,99454.81
2023-05-12T18:15:03.882Z,99463.20
2023-05-12T18:17:30.741Z,99466.53
2023-05-12T18:19:57.761Z,99471.25
2023-05-12T18:22:24.567Z,99477.02
2023-05-12T18:24:51.447Z,99478.27
2023-05-12T18:27:18.163Z,99480.27
2023-05-12T18:29:45.029Z,99481.31
2023-05-12T18:32:11.789Z,99481.16
2023-05-12T18:34:38.828Z,99479.41
2023-05-12T18:37:08.884Z,99480.28
2023-05-12T18:39:39.475Z,99478.56
2023-05-12T18:42:08.164Z,99478.70
2023-05-12T18:44:34.903Z,99479.89
2023-05-12T18:47:01.709Z,99481.77
2023-05-12T18:49:28.501Z,99485.23
2023-05-12T18:51:55.281Z,99484.83
2023-05-12T18:54:22.072Z,99484.79
2023-05-12T18:56:50.825Z,99489.75
2023-05-12T18:59:18.445Z,99490.07
2023-05-12T19:01:45.401Z,99493.50
2023-05-12T19:04:13.058Z,99488.75
2023-05-12T19:06:39.800Z,99491.27
2023-05-12T19:09:06.927Z,99491.19
2023-05-12T19:11:33.687Z,99485.17
2023-05-12T19:14:00.433Z,99487.86
2023-05-12T19:16:31.935Z,99489.11
2023-05-12T19:19:00.539Z,99491.25
2023-05-12T19:21:27.920Z,99493.23
2023-05-12T19:23:57.849Z,99492.92
2023-05-12T19:26:24.704Z,99493.84
2023-05-12T19:28:51.477Z,99499.96
2023-05-12T19:31:18.217Z,99497.92
2023-05-12T19:33:45.417Z,99495.17
2023-05-12T19:36:12.350Z,99495.90
2023-05-12T19:38:43.564Z,99493.85
2023-05-12T19:41:10.999Z,99487.83
2023-05-12T19:43:37.824Z,99491.31
2023-05-12T19:49:10.482Z,99492.59
2023-05-12T19:51:37.458Z,99493.52
2023-05-12T19:54:06.495Z,99493.03
2023-05-12T19:56:33.711Z,99494.79
2023-05-12T19:59:00.778Z,99494.30
2023-05-12T20:01:27.905Z,99490.67
2023-05-12T20:03:54.798Z,99491.76
2023-05-12T20:06:22.492Z,99494.20
2023-05-12T20:08:49.503Z,99494.93
2023-05-12T20:11:16.373Z,99498.08
2023-05-12T20:13:43.203Z,99500.69
2023-05-12T20:16:10.122Z,99498.63
2023-05-12T20:18:36.930Z,99497.26
2023-05-12T20:21:03.954Z,99499.02
2023-05-12T20:23:30.690Z,99497.48
2023-05-12T20:25:58.408Z,99500.77
2023-05-12T20:28:25.504Z,99497.48
2023-05-12T20:30:52.420Z,99495.23
2023-05-12T20:33:19.323Z,99501.11
2023-05-12T20:35:46.178Z,99499.05
2023-05-12T20:38:13.726Z,99499.06
2023-05-12T20:40:41.193Z,99497.66
2023-05-12T20:43:08.034Z,99499.56
2023-05-12T20:45:35.081Z,99501.45
2023-05-12T20:48:02.513Z,99502.66
2023-05-12T20:50:29.488Z,99499.04
2023-05-12T20:52:56.325Z,99501.63
2023-05-12T20:55:23.408Z,99500.05
2023-05-12T20:57:50.632Z,99502.46
2023-05-12T21:00:18.393Z,99504.16
2023-05-12T21:02:45.679Z,99503.80
2023-05-12T21:05:12.687Z,99505.33
2023-05-12T21:07:39.648Z,99501.67
2023-05-12T21:10:06.813Z,99504.95
2023-05-12T21:12:34.260Z,99502.67
2023-05-12T21:15:01.916Z,99508.03
2023-05-12T21:17:28.657Z,99510.78
2023-05-12T21:19:55.586Z,99512.15
2023-05-12T21:22:22.335Z,99516.64
2023-05-12T21:24:51.055Z,99515.41
2023-05-12T21:27:18.677Z,99513.52
2023-05-12T21:29:45.533Z,99518.16
2023-05-12T21:32:12.360Z,99516.59
2023-05-12T21:34:39.398Z,99518.64
2023-05-12T21:37:06.444Z,99520.20
2023-05-12T21:39:33.300Z,99515.86
2023-05-12T21:42:00.260Z,99517.73
2023-05-12T21:44:27.116Z,99520.63
2023-05-12T21:46:54.036Z,99522.13
2023-05-12T21:49:21.097Z,99525.70
2023-05-12T21:51:48.028Z,99525.84
2023-05-12T21:54:14.856Z,99528.39
2023-05-12T21:56:41.605Z,99529.57
2023-05-12T21:59:08.435Z,99531.60
2023-05-12T22:01:35.250Z,99528.30
2023-05-12T22:04:02.206Z,99528.80
2023-05-12T22:06:29.167Z,99529.31
2023-05-12T22:08:56.020Z,99527.03
2023-05-12T22:11:23.367Z,99531.14
2023-05-12T22:13:50.541Z,99527.30
2023-05-12T22:16:18.549Z,99527.95
2023-05-12T22:18:47.102Z,99527.72
2023-05-12T22:21:14.050Z,99528.18
2023-05-12T22:23:42.212Z,99532.08
2023-05-12T22:26:09.758Z,99529.80
2023-05-12T22:28:36.607Z,99533.20
2023-05-12T22:31:03.558Z,99530.24
2023-05-12T22:33:31.217Z,99530.38
2023-05-12T22:35:59.291Z,99526.56
2023-05-12T22:38:27.168Z,99529.13
2023-05-12T22:40:54.089Z,99528.77
2023-05-12T22:43:21.149Z,99525.15
2023-05-12T22:45:52.101Z,99525.98
2023-05-12T22:48:19.851Z,99526.66
2023-05-12T22:50:46.898Z,99524.60
2023-05-12T22:53:13.961Z,99521.70
2023-05-12T22:55:41.087Z,99518.77
2023-05-12T22:58:07.927Z,99521.18
2023-05-12T23:00:34.684Z,99517.73
2023-05-12T23:03:03.481Z,99515.36
2023-05-12T23:05:30.512Z,99509.51
2023-05-12T23:07:57.482Z,99512.80
2023-05-12T23:10:24.496Z,99513.84
2023-05-12T23:12:51.665Z,99513.15
2023-05-12T23:15:18.589Z,99516.43
2023-05-12T23:17:45.369Z,99516.95
2023-05-12T23:20:12.687Z,99517.64
2023-05-12T23:22:39.843Z,99518.13
2023-05-12T23:25:07.426Z,99516.39
2023-05-12T23:27:34.248Z,99516.70
2023-05-12T23:30:01.078Z,99518.58
2023-05-12T23:32:28.127Z,99518.52
2023-05-12T23:34:55.085Z,99521.20
2023-05-12T23:37:21.804Z,99528.13
2023-05-12T23:39:48.759Z,99531.61
2023-05-12T23:42:17.181Z,99534.80
2023-05-12T23:44:44.010Z,99538.36
2023-05-12T23:47:10.805Z,99539.69
2023-05-12T23:49:37.681Z,99536.42
2023-05-12T23:52:04.708Z,99537.98
2023-05-12T23:54:31.478Z,99537.65
2023-05-12T23:56:58.513Z,99539.59
2023-05-12T23:59:25.542Z,99538.80
